Time;durP1;ratioP1;P1;durP2;ratioP2;P2;SDS_P1;SDS_P2;PMS_P1;PMS_P2;Temp;Humidity;BMP_temperature;BMP_pressure;BME280_temperature;BME280_humidity;BME280_pressure;Samples;Min_cycle;Max_cycle;Signal;HPM_P1;HPM_P2
2022/07/23 00:00:06;;;;;;;2.15;1.42;;;17.20;99.90;;;;;;5095295;28;20204;-62
2022/07/23 00:02:32;;;;;;;1.58;1.40;;;17.20;99.90;;;;;;5094891;28;20585;-62
2022/07/23 00:04:57;;;;;;;1.40;1.20;;;17.10;99.90;;;;;;5095525;28;20173;-62
2022/07/23 00:07:23;;;;;;;2.03;1.20;;;17.10;99.90;;;;;;5076508;28;20639;-62
2022/07/23 00:09:49;;;;;;;1.83;1.30;;;17.00;99.90;;;;;;5095361;28;20607;-62
2022/07/23 00:12:14;;;;;;;1.83;1.50;;;16.90;99.90;;;;;;5095185;28;20175;-62
2022/07/23 00:14:40;;;;;;;2.95;1.50;;;16.80;99.90;;;;;;5077053;28;20214;-62
2022/07/23 00:17:06;;;;;;;1.73;1.25;;;16.70;99.90;;;;;;5077026;28;20174;-62
2022/07/23 00:19:32;;;;;;;1.50;1.33;;;16.80;99.90;;;;;;5060967;28;20174;-59
2022/07/23 00:21:57;;;;;;;1.77;1.38;;;16.80;99.90;;;;;;5076931;28;20205;-62
2022/07/23 00:24:23;;;;;;;1.85;1.40;;;16.80;99.90;;;;;;5076842;28;20223;-62
2022/07/23 00:26:49;;;;;;;1.58;1.30;;;16.80;99.90;;;;;;5094970;28;20181;-61
2022/07/23 00:29:14;;;;;;;1.75;1.50;;;16.70;99.90;;;;;;5094780;28;20647;-62
2022/07/23 00:31:40;;;;;;;1.30;1.20;;;16.70;99.90;;;;;;5094688;28;20174;-62
2022/07/23 00:34:06;;;;;;;1.63;1.35;;;16.60;99.90;;;;;;5076891;28;20232;-62
2022/07/23 00:36:32;;;;;;;1.80;1.50;;;16.40;99.90;;;;;;5094859;28;20654;-62
2022/07/23 00:38:58;;;;;;;1.60;1.38;;;16.50;99.90;;;;;;5095173;28;20178;-61
2022/07/23 00:41:24;;;;;;;1.75;1.55;;;16.50;99.90;;;;;;5094686;28;20681;-62
2022/07/23 00:43:49;;;;;;;1.48;1.17;;;16.50;99.90;;;;;;5076613;28;20174;-61
2022/07/23 00:46:22;;;;;;;1.77;1.35;;;16.40;99.90;;;;;;5076412;28;20297;-62
2022/07/23 00:48:48;;;;;;;1.85;1.17;;;16.40;99.90;;;;;;5076583;28;20200;-62
2022/07/23 00:51:17;;;;;;;1.77;1.40;;;16.40;99.90;;;;;;5076677;28;20201;-62
2022/07/23 00:53:45;;;;;;;1.42;1.20;;;16.40;99.90;;;;;;5059592;28;20727;-62
2022/07/23 00:56:11;;;;;;;1.50;1.38;;;16.40;99.90;;;;;;5094428;28;20257;-62
2022/07/23 00:58:42;;;;;;;1.02;0.93;;;16.40;99.90;;;;;;5094327;28;20196;-62
2022/07/23 01:01:09;;;;;;;2.55;1.23;;;16.30;99.90;;;;;;5094154;28;20631;-61
2022/07/23 01:03:34;;;;;;;1.75;1.38;;;16.20;99.90;;;;;;5094344;28;20186;-62
2022/07/23 01:06:00;;;;;;;2.83;1.35;;;16.20;99.90;;;;;;5094212;28;20695;-62
2022/07/23 01:08:26;;;;;;;1.77;1.13;;;16.20;99.90;;;;;;5094125;28;20174;-62
2022/07/23 01:10:52;;;;;;;1.58;1.10;;;16.30;99.90;;;;;;5075898;28;20224;-62
2022/07/23 01:13:17;;;;;;;2.08;1.30;;;16.30;99.90;;;;;;5093892;28;20202;-62
2022/07/23 01:15:43;;;;;;;1.88;1.40;;;16.30;99.90;;;;;;5059554;28;20170;-62
2022/07/23 01:18:09;;;;;;;1.42;1.33;;;16.10;99.90;;;;;;5076146;28;20267;-62
2022/07/23 01:20:35;;;;;;;1.30;1.10;;;16.10;99.90;;;;;;5059226;28;20178;-63
2022/07/23 01:23:01;;;;;;;1.63;1.30;;;16.20;99.90;;;;;;5075977;28;20178;-62
2022/07/23 01:25:26;;;;;;;1.63;1.52;;;16.20;99.90;;;;;;5076104;28;20174;-61
2022/07/23 01:27:53;;;;;;;1.98;1.40;;;16.10;99.90;;;;;;5075840;28;20242;-62
2022/07/23 01:30:19;;;;;;;1.55;1.40;;;16.10;99.90;;;;;;5094174;28;20622;-62
2022/07/23 01:32:45;;;;;;;1.67;1.50;;;16.00;99.90;;;;;;5094110;28;20199;-62
2022/07/23 01:35:11;;;;;;;1.33;1.20;;;16.00;99.90;;;;;;5093908;28;20169;-62
2022/07/23 01:37:37;;;;;;;1.73;1.30;;;16.00;99.90;;;;;;5075747;28;20262;-62
2022/07/23 01:40:04;;;;;;;1.35;1.10;;;16.00;99.90;;;;;;5093887;28;20185;-62
2022/07/23 01:42:29;;;;;;;1.98;1.40;;;16.00;99.90;;;;;;5093548;28;20180;-62
2022/07/23 01:44:55;;;;;;;1.27;1.17;;;15.90;99.90;;;;;;5093748;28;20182;-62
2022/07/23 01:47:21;;;;;;;2.20;1.60;;;15.90;99.90;;;;;;5059123;28;20193;-61
2022/07/23 01:49:47;;;;;;;4.10;1.63;;;15.90;99.90;;;;;;5075825;28;20578;-62
2022/07/23 01:52:12;;;;;;;2.15;1.25;;;15.90;99.90;;;;;;5075506;28;20640;-62
2022/07/23 01:54:39;;;;;;;1.80;1.20;;;15.90;99.90;;;;;;5093300;28;20308;-62
2022/07/23 01:57:06;;;;;;;1.98;1.05;;;16.00;99.90;;;;;;5075411;28;20203;-62
2022/07/23 01:59:31;;;;;;;1.08;0.93;;;16.00;99.90;;;;;;5093914;28;20311;-60
2022/07/23 02:01:57;;;;;;;1.80;1.20;;;16.00;99.90;;;;;;5058714;28;20211;-62
2022/07/23 02:04:24;;;;;;;1.70;1.20;;;15.90;99.90;;;;;;5075420;28;20680;-62
2022/07/23 02:06:51;;;;;;;1.52;1.23;;;15.90;99.90;;;;;;5093434;28;20201;-62
2022/07/23 02:09:17;;;;;;;1.13;1.02;;;15.90;99.90;;;;;;5093074;28;20180;-62
2022/07/23 02:11:44;;;;;;;1.45;1.00;;;15.80;99.90;;;;;;5093614;28;20197;-62
2022/07/23 02:14:10;;;;;;;1.38;1.25;;;15.80;99.90;;;;;;5093169;28;20210;-62
2022/07/23 02:16:36;;;;;;;2.88;1.30;;;15.80;99.90;;;;;;5093315;28;20188;-62
2022/07/23 02:19:03;;;;;;;1.40;1.23;;;15.80;99.90;;;;;;5093237;28;20196;-62
2022/07/23 02:21:28;;;;;;;1.13;1.02;;;15.70;99.90;;;;;;5093109;28;20181;-62
2022/07/23 02:23:54;;;;;;;1.98;1.20;;;15.70;99.90;;;;;;5093072;28;20174;-62
2022/07/23 02:26:20;;;;;;;1.70;1.40;;;15.70;99.90;;;;;;5093088;28;20227;-61
2022/07/23 02:28:46;;;;;;;2.08;1.17;;;15.60;99.90;;;;;;5093342;28;20174;-63
2022/07/23 02:31:11;;;;;;;1.40;1.00;;;15.70;99.90;;;;;;5078571;28;20201;-62
2022/07/23 02:33:37;;;;;;;1.90;1.40;;;15.70;99.90;;;;;;5079044;28;20205;-62
2022/07/23 02:36:03;;;;;;;1.15;1.00;;;15.60;99.90;;;;;;5078965;28;20249;-62
2022/07/23 02:38:28;;;;;;;2.38;1.42;;;15.60;99.90;;;;;;5096919;28;20166;-62
2022/07/23 02:40:54;;;;;;;1.30;1.13;;;15.70;99.90;;;;;;5079039;28;20178;-62
2022/07/23 02:43:20;;;;;;;1.58;1.42;;;15.70;99.90;;;;;;5097007;28;20184;-61
2022/07/23 02:45:45;;;;;;;1.60;1.48;;;15.70;99.90;;;;;;5096963;28;20174;-62
2022/07/23 02:48:14;;;;;;;1.20;1.05;;;15.60;99.90;;;;;;5078891;28;20592;-63
2022/07/23 02:50:39;;;;;;;1.73;1.30;;;15.60;99.90;;;;;;5078475;28;20243;-62
2022/07/23 02:53:05;;;;;;;1.60;1.38;;;15.50;99.90;;;;;;5096556;28;20202;-62
2022/07/23 02:55:31;;;;;;;1.60;1.27;;;15.60;99.90;;;;;;5078655;28;20255;-62
2022/07/23 02:57:57;;;;;;;1.55;1.40;;;15.60;99.90;;;;;;5062169;28;20166;-62
2022/07/23 03:00:23;;;;;;;1.70;1.23;;;15.60;99.90;;;;;;5096698;28;20174;-62
2022/07/23 03:02:48;;;;;;;1.20;1.10;;;15.60;99.90;;;;;;5096500;28;20170;-62
2022/07/23 03:05:14;;;;;;;1.40;1.10;;;15.50;99.90;;;;;;5096600;28;20174;-62
2022/07/23 03:07:40;;;;;;;2.72;1.48;;;15.60;99.90;;;;;;5096329;28;20182;-63
2022/07/23 03:10:06;;;;;;;1.65;1.55;;;15.60;99.90;;;;;;5096084;28;20236;-63
2022/07/23 03:12:31;;;;;;;2.00;1.10;;;15.50;99.90;;;;;;5096385;28;20734;-59
2022/07/23 03:14:57;;;;;;;1.48;1.35;;;15.50;99.90;;;;;;5078156;28;20214;-61
2022/07/23 03:17:23;;;;;;;1.42;1.13;;;15.50;99.90;;;;;;5061522;28;20178;-62
2022/07/23 03:19:49;;;;;;;1.45;1.20;;;15.40;99.90;;;;;;5078195;28;20177;-62
2022/07/23 03:22:14;;;;;;;1.52;1.30;;;15.30;99.90;;;;;;5077923;28;20537;-62
2022/07/23 03:24:55;;;;;;;1.85;1.20;;;15.30;99.90;;;;;;5096122;28;20178;-62
2022/07/23 03:27:26;;;;;;;1.63;1.35;;;15.30;99.90;;;;;;5096261;28;20196;-61
2022/07/23 03:29:56;;;;;;;1.83;1.45;;;15.30;99.90;;;;;;5096012;28;20180;-62
2022/07/23 03:32:22;;;;;;;1.38;1.27;;;15.30;99.90;;;;;;5096055;28;20194;-62
2022/07/23 03:34:48;;;;;;;1.88;1.55;;;15.10;99.90;;;;;;5095805;28;20659;-62
2022/07/23 03:37:15;;;;;;;1.20;1.10;;;15.10;99.90;;;;;;5096056;28;20179;-62
2022/07/23 03:39:40;;;;;;;1.48;1.20;;;15.00;99.90;;;;;;5095543;28;20722;-62
2022/07/23 03:42:07;;;;;;;1.08;0.95;;;14.90;99.90;;;;;;5095867;28;20167;-62
2022/07/23 03:44:32;;;;;;;1.50;1.20;;;15.00;99.90;;;;;;5095859;28;20192;-62
2022/07/23 03:46:58;;;;;;;1.70;1.20;;;15.00;99.90;;;;;;5095832;28;20174;-62
2022/07/23 03:49:24;;;;;;;2.20;1.50;;;15.00;99.90;;;;;;5077595;28;20165;-62
2022/07/23 03:51:50;;;;;;;1.25;1.15;;;15.00;99.90;;;;;;5077514;28;20186;-62
2022/07/23 03:54:16;;;;;;;1.48;1.17;;;14.90;99.90;;;;;;5095757;28;20210;-62
2022/07/23 03:56:42;;;;;;;1.42;1.13;;;15.00;99.90;;;;;;5077495;28;20197;-62
2022/07/23 03:59:08;;;;;;;1.90;1.25;;;14.90;99.90;;;;;;5095389;28;20215;-62
2022/07/23 04:01:34;;;;;;;2.58;1.63;;;14.90;99.90;;;;;;5077228;28;20509;-62
2022/07/23 04:04:00;;;;;;;1.27;1.17;;;14.90;99.90;;;;;;5095257;28;20316;-62
2022/07/23 04:06:26;;;;;;;1.38;1.25;;;14.90;99.90;;;;;;5095509;28;20162;-62
2022/07/23 04:08:52;;;;;;;1.85;1.50;;;14.90;99.90;;;;;;5095113;28;20185;-62
2022/07/23 04:11:17;;;;;;;1.88;1.30;;;14.90;99.90;;;;;;5077230;28;20194;-62
2022/07/23 04:13:43;;;;;;;1.13;1.02;;;15.00;99.90;;;;;;5095199;28;20202;-62
2022/07/23 04:16:09;;;;;;;1.23;1.00;;;14.90;99.90;;;;;;5095113;28;20178;-63
2022/07/23 04:18:35;;;;;;;1.08;1.05;;;14.90;99.90;;;;;;5077113;28;20174;-63
2022/07/23 04:21:01;;;;;;;1.10;1.00;;;14.90;99.90;;;;;;5095071;28;20182;-63
2022/07/23 04:23:26;;;;;;;1.08;0.98;;;14.90;99.90;;;;;;5077100;28;20174;-63
2022/07/23 04:25:52;;;;;;;1.35;1.00;;;14.80;99.90;;;;;;5094878;28;20178;-63
2022/07/23 04:28:18;;;;;;;1.20;1.10;;;14.80;99.90;;;;;;5094852;28;20577;-63
2022/07/23 04:30:44;;;;;;;2.03;1.40;;;14.90;99.90;;;;;;5094801;28;20169;-62
2022/07/23 04:33:09;;;;;;;1.92;1.27;;;14.90;99.90;;;;;;5094651;28;20255;-62
2022/07/23 04:35:39;;;;;;;1.63;1.40;;;15.00;99.90;;;;;;5060284;28;20182;-62
2022/07/23 04:38:05;;;;;;;1.50;1.40;;;15.00;99.90;;;;;;5093859;28;20551;-63
2022/07/23 04:40:30;;;;;;;1.40;1.30;;;15.00;99.90;;;;;;5076302;28;20181;-62
2022/07/23 04:42:57;;;;;;;2.17;1.20;;;15.00;99.90;;;;;;5094551;28;20570;-62
2022/07/23 04:45:25;;;;;;;1.40;1.13;;;14.90;99.90;;;;;;5094549;28;20170;-63
2022/07/23 04:47:51;;;;;;;1.30;1.10;;;14.90;99.90;;;;;;5076869;28;20174;-63
2022/07/23 04:50:21;;;;;;;2.13;1.40;;;14.90;99.90;;;;;;5094636;28;20269;-63
2022/07/23 04:52:47;;;;;;;2.10;1.52;;;15.00;99.90;;;;;;5093980;28;20208;-62
2022/07/23 04:55:13;;;;;;;1.50;1.40;;;15.10;99.90;;;;;;5076312;28;20174;-63
2022/07/23 04:57:38;;;;;;;1.25;1.15;;;15.10;99.90;;;;;;5094295;28;20170;-63
2022/07/23 05:00:05;;;;;;;1.98;1.50;;;15.20;99.90;;;;;;5094151;28;20173;-63
2022/07/23 05:02:31;;;;;;;1.60;1.40;;;15.30;99.90;;;;;;5059356;28;20197;-63
2022/07/23 05:04:56;;;;;;;2.28;1.45;;;15.30;99.90;;;;;;5094198;28;20630;-62
2022/07/23 05:07:22;;;;;;;1.40;1.23;;;15.40;99.90;;;;;;5094370;28;20519;-62
2022/07/23 05:09:48;;;;;;;2.17;1.30;;;15.40;99.90;;;;;;5059280;28;20276;-63
2022/07/23 05:12:13;;;;;;;1.50;1.40;;;15.50;99.90;;;;;;5094134;28;20173;-63
2022/07/23 05:14:39;;;;;;;1.52;1.33;;;15.60;99.90;;;;;;5075367;28;20671;-62
2022/07/23 05:17:04;;;;;;;1.95;1.30;;;15.70;99.90;;;;;;5075907;28;20185;-62
2022/07/23 05:19:30;;;;;;;1.75;1.55;;;15.80;99.90;;;;;;5075931;28;20186;-62
2022/07/23 05:21:56;;;;;;;2.00;1.55;;;16.00;99.90;;;;;;5075994;28;20170;-62
2022/07/23 05:24:21;;;;;;;2.00;1.48;;;16.00;99.90;;;;;;5059151;28;20185;-62
2022/07/23 05:26:47;;;;;;;2.70;1.88;;;16.00;99.90;;;;;;5093851;28;20251;-62
2022/07/23 05:29:13;;;;;;;2.17;1.30;;;16.10;99.90;;;;;;5075632;28;20630;-65
2022/07/23 05:31:38;;;;;;;2.63;1.50;;;16.30;99.90;;;;;;5075561;28;20542;-63
2022/07/23 05:34:04;;;;;;;2.65;1.45;;;16.30;99.90;;;;;;5093456;28;20209;-63
2022/07/23 05:36:32;;;;;;;1.88;1.77;;;16.40;99.90;;;;;;5093669;28;20181;-63
2022/07/23 05:38:58;;;;;;;1.58;1.48;;;16.50;99.90;;;;;;5093455;28;20192;-63
2022/07/23 05:41:23;;;;;;;2.25;1.40;;;16.70;99.90;;;;;;5075514;28;20706;-63
2022/07/23 05:43:49;;;;;;;2.05;1.50;;;16.80;99.90;;;;;;5093463;28;20265;-62
2022/07/23 05:46:15;;;;;;;2.08;1.58;;;16.90;99.90;;;;;;5075759;28;20577;-62
2022/07/23 05:48:41;;;;;;;1.92;1.35;;;17.00;99.90;;;;;;5075671;28;20581;-62
2022/07/23 05:51:08;;;;;;;1.95;1.52;;;17.00;99.90;;;;;;5093555;28;20583;-62
2022/07/23 05:53:34;;;;;;;1.73;1.25;;;17.10;99.90;;;;;;5093307;28;20206;-62
2022/07/23 05:56:00;;;;;;;2.92;1.75;;;17.30;99.90;;;;;;5093354;28;20261;-62
2022/07/23 05:58:27;;;;;;;2.15;1.50;;;17.40;99.90;;;;;;5093205;28;20601;-62
2022/07/23 06:00:52;;;;;;;1.42;1.00;;;17.50;99.90;;;;;;5093746;28;20523;-62
2022/07/23 06:03:18;;;;;;;1.70;1.48;;;17.60;99.90;;;;;;5093581;28;20166;-63
2022/07/23 06:05:44;;;;;;;1.98;1.50;;;17.60;99.90;;;;;;5096111;28;20254;-61
2022/07/23 06:08:09;;;;;;;1.25;1.15;;;17.60;99.90;;;;;;5095440;28;20685;-59
2022/07/23 06:10:35;;;;;;;1.60;1.13;;;17.60;99.90;;;;;;5096252;28;20196;-62
2022/07/23 06:13:01;;;;;;;1.50;1.38;;;17.60;99.90;;;;;;5097057;28;20165;-62
2022/07/23 06:15:27;;;;;;;1.20;1.10;;;17.60;99.90;;;;;;5079495;28;20642;-62
2022/07/23 06:17:52;;;;;;;1.95;1.23;;;17.70;99.90;;;;;;5079284;28;20177;-62
2022/07/23 06:20:18;;;;;;;1.58;1.13;;;17.80;99.90;;;;;;5097135;28;20185;-61
2022/07/23 06:22:44;;;;;;;2.03;1.42;;;18.00;99.90;;;;;;5078916;28;20177;-62
2022/07/23 06:25:09;;;;;;;2.38;1.50;;;18.20;99.90;;;;;;5096765;28;20177;-62
2022/07/23 06:27:35;;;;;;;2.17;1.75;;;18.10;99.90;;;;;;5096904;28;20286;-62
2022/07/23 06:30:01;;;;;;;2.35;1.40;;;18.10;99.90;;;;;;5097186;28;20637;-62
2022/07/23 06:32:26;;;;;;;2.25;1.52;;;18.20;99.90;;;;;;5096946;28;20170;-62
2022/07/23 06:34:52;;;;;;;1.98;1.60;;;18.30;99.90;;;;;;5096777;28;20209;-61
2022/07/23 06:37:18;;;;;;;1.98;1.48;;;18.40;99.90;;;;;;5095326;28;20181;-62
2022/07/23 06:39:43;;;;;;;1.50;1.30;;;18.60;99.90;;;;;;5096967;28;20204;-62
2022/07/23 06:42:11;;;;;;;2.20;1.50;;;18.80;99.90;;;;;;5096428;28;20621;-62
2022/07/23 06:44:36;;;;;;;1.95;1.75;;;19.00;99.90;;;;;;5096570;28;20265;-63
2022/07/23 06:47:02;;;;;;;2.13;1.75;;;19.20;99.90;;;;;;5096721;28;20262;-62
2022/07/23 06:49:28;;;;;;;1.50;1.35;;;19.30;99.90;;;;;;5096611;28;20181;-62
2022/07/23 06:51:54;;;;;;;2.72;1.95;;;19.60;99.90;;;;;;5078590;28;20213;-62
2022/07/23 06:54:19;;;;;;;1.92;1.67;;;19.70;99.90;;;;;;5096309;28;20202;-62
2022/07/23 06:56:45;;;;;;;3.30;1.80;;;19.80;99.90;;;;;;5076708;28;20269;-62
2022/07/23 06:59:11;;;;;;;2.30;1.58;;;20.00;99.90;;;;;;5095425;28;20193;-62
2022/07/23 07:01:37;;;;;;;1.88;1.50;;;20.10;99.90;;;;;;5096530;28;20181;-61
2022/07/23 07:04:03;;;;;;;2.20;1.65;;;20.10;99.90;;;;;;5078202;28;20217;-62
2022/07/23 07:06:28;;;;;;;2.80;1.70;;;20.10;99.90;;;;;;5095964;28;20197;-62
2022/07/23 07:08:55;;;;;;;1.70;1.35;;;20.30;99.90;;;;;;5061704;28;20186;-63
2022/07/23 07:11:21;;;;;;;1.70;1.27;;;20.30;99.90;;;;;;5076231;28;20284;-62
2022/07/23 07:13:46;;;;;;;2.00;1.67;;;20.40;99.90;;;;;;5076109;28;20655;-62
2022/07/23 07:16:12;;;;;;;2.55;1.70;;;20.50;99.90;;;;;;5057752;28;20205;-62
2022/07/23 07:18:38;;;;;;;1.30;1.20;;;20.40;99.90;;;;;;5075833;28;20220;-62
2022/07/23 07:21:03;;;;;;;1.50;1.33;;;20.70;99.90;;;;;;5058038;28;20194;-62
2022/07/23 07:23:29;;;;;;;1.60;1.33;;;20.70;99.90;;;;;;5070807;28;20178;-62
2022/07/23 07:25:55;;;;;;;2.47;1.60;;;21.00;99.90;;;;;;5060845;28;20213;-62
2022/07/23 07:28:20;;;;;;;1.83;1.67;;;20.90;99.90;;;;;;5077751;28;20618;-62
2022/07/23 07:30:46;;;;;;;1.77;1.50;;;20.80;99.90;;;;;;5077592;28;20228;-61
2022/07/23 07:33:12;;;;;;;1.70;1.27;;;20.80;99.90;;;;;;5095789;28;20214;-62
2022/07/23 07:35:37;;;;;;;1.67;1.38;;;20.80;99.90;;;;;;5077677;28;20202;-62
2022/07/23 07:38:03;;;;;;;2.03;1.67;;;21.00;99.90;;;;;;5087510;28;20622;-62
2022/07/23 07:40:29;;;;;;;2.35;1.05;;;21.10;99.90;;;;;;5087123;28;20182;-62
2022/07/23 07:42:56;;;;;;;2.05;1.10;;;20.80;99.90;;;;;;5094087;28;20595;-62
2022/07/23 07:45:23;;;;;;;1.77;1.10;;;21.10;99.90;;;;;;5076579;28;20627;-61
2022/07/23 07:47:50;;;;;;;1.58;1.27;;;21.30;99.90;;;;;;5095103;28;20181;-62
2022/07/23 07:50:15;;;;;;;2.60;1.30;;;21.30;99.90;;;;;;5095510;28;20182;-61
2022/07/23 07:52:42;;;;;;;3.10;1.73;;;21.60;99.90;;;;;;5077592;28;20632;-62
2022/07/23 07:55:10;;;;;;;1.70;1.20;;;21.90;99.90;;;;;;5095298;28;20666;-62
2022/07/23 07:57:36;;;;;;;1.88;1.48;;;21.80;99.90;;;;;;5095612;28;20196;-62
2022/07/23 08:00:05;;;;;;;1.75;1.20;;;21.90;99.90;;;;;;5095209;28;20174;-62
2022/07/23 08:02:42;;;;;;;1.70;1.17;;;21.90;99.90;;;;;;5094165;28;20193;-63
2022/07/23 08:05:08;;;;;;;1.52;1.20;;;21.70;99.90;;;;;;5095221;28;20170;-62
2022/07/23 08:07:34;;;;;;;2.53;1.48;;;21.60;99.90;;;;;;5095139;28;20178;-62
2022/07/23 08:10:00;;;;;;;1.58;1.17;;;21.70;99.90;;;;;;5095514;28;20208;-62
2022/07/23 08:12:25;;;;;;;1.27;1.10;;;21.80;99.90;;;;;;5094861;28;20635;-62
2022/07/23 08:14:51;;;;;;;1.40;1.20;;;22.10;99.90;;;;;;5095105;28;20206;-60
2022/07/23 08:17:16;;;;;;;2.15;1.15;;;22.10;99.90;;;;;;5094740;28;20182;-61
2022/07/23 08:19:42;;;;;;;1.88;1.08;;;22.10;99.90;;;;;;5094621;28;20180;-60
2022/07/23 08:22:08;;;;;;;3.83;1.10;;;22.20;99.90;;;;;;5076858;28;20178;-60
2022/07/23 08:24:34;;;;;;;1.80;1.30;;;22.40;99.90;;;;;;5076982;28;20182;-61
2022/07/23 08:26:59;;;;;;;2.30;1.60;;;22.60;99.90;;;;;;5094543;28;20189;-61
2022/07/23 08:29:25;;;;;;;2.00;1.30;;;22.40;99.90;;;;;;5094759;28;20627;-61
2022/07/23 08:31:51;;;;;;;1.50;1.20;;;22.30;99.90;;;;;;5094807;28;20181;-58
2022/07/23 08:34:16;;;;;;;2.88;1.40;;;22.60;99.90;;;;;;5076704;28;20205;-61
2022/07/23 08:36:42;;;;;;;2.22;1.15;;;22.30;99.90;;;;;;5094562;28;20181;-61
2022/07/23 08:39:08;;;;;;;1.30;1.20;;;22.50;99.90;;;;;;5094509;28;20178;-61
2022/07/23 08:41:34;;;;;;;2.42;1.63;;;22.60;99.90;;;;;;5077061;28;20181;-61
2022/07/23 08:44:00;;;;;;;2.22;1.52;;;22.60;99.90;;;;;;5094626;28;20178;-61
2022/07/23 08:46:27;;;;;;;1.58;1.20;;;22.80;99.90;;;;;;5076785;28;20550;-61
2022/07/23 08:48:54;;;;;;;2.55;1.40;;;22.70;99.90;;;;;;5094649;28;20201;-60
2022/07/23 08:51:20;;;;;;;2.70;1.33;;;22.60;99.90;;;;;;5094413;28;20178;-61
2022/07/23 08:53:47;;;;;;;1.35;1.10;;;22.70;99.90;;;;;;5094631;28;20262;-61
2022/07/23 08:56:13;;;;;;;1.85;1.67;;;23.00;99.90;;;;;;5094583;28;20170;-61
2022/07/23 08:58:39;;;;;;;3.13;1.50;;;23.10;99.90;;;;;;5094556;28;20531;-57
2022/07/23 09:01:04;;;;;;;1.95;1.13;;;22.90;99.90;;;;;;5094244;28;20170;-61
2022/07/23 09:03:35;;;;;;;1.60;1.35;;;22.80;99.90;;;;;;5076300;28;20181;-61
2022/07/23 09:06:02;;;;;;;2.35;1.30;;;22.80;99.90;;;;;;5094121;28;20177;-61
2022/07/23 09:08:34;;;;;;;1.30;1.20;;;23.00;99.90;;;;;;5094217;28;20189;-60
2022/07/23 09:11:02;;;;;;;1.58;1.13;;;23.10;99.90;;;;;;5094241;28;20185;-61
2022/07/23 09:13:38;;;;;;;1.40;1.02;;;23.00;99.90;;;;;;5094234;28;20212;-60
2022/07/23 09:16:11;;;;;;;1.50;0.90;;;23.10;99.90;;;;;;5094008;28;20216;-61
2022/07/23 09:18:58;;;;;;;1.20;1.00;;;23.10;99.90;;;;;;5093865;28;20181;-61
2022/07/23 09:21:29;;;;;;;1.80;1.20;;;23.10;99.90;;;;;;5094063;28;20176;-61
2022/07/23 09:24:02;;;;;;;1.75;1.10;;;23.10;99.60;;;;;;5076098;28;20653;-61
2022/07/23 09:26:36;;;;;;;1.50;1.30;;;23.10;99.90;;;;;;5093930;28;20169;-61
2022/07/23 09:29:17;;;;;;;1.08;0.98;;;23.20;99.90;;;;;;5093807;28;20165;-61
2022/07/23 09:32:00;;;;;;;2.03;1.20;;;23.30;99.90;;;;;;5094218;28;20177;-61
2022/07/23 09:34:26;;;;;;;1.75;1.45;;;23.40;99.50;;;;;;5093793;28;20197;-61
2022/07/23 09:36:55;;;;;;;1.10;1.00;;;23.50;99.70;;;;;;5093952;28;20182;-60
2022/07/23 09:39:33;;;;;;;1.23;1.02;;;23.60;99.90;;;;;;5093744;28;20223;-61
2022/07/23 09:42:16;;;;;;;1.20;1.10;;;23.90;99.90;;;;;;5093810;28;20185;-61
2022/07/23 09:44:44;;;;;;;0.77;0.77;;;23.90;98.80;;;;;;5093626;28;20264;-61
2022/07/23 09:47:10;;;;;;;0.73;0.70;;;24.00;98.80;;;;;;5093672;28;20550;-61
2022/07/23 09:49:36;;;;;;;1.73;1.10;;;24.00;98.40;;;;;;5093507;28;20261;-61
2022/07/23 09:52:03;;;;;;;1.60;0.82;;;23.90;99.30;;;;;;5093330;28;20524;-61
2022/07/23 09:54:39;;;;;;;1.73;0.90;;;24.00;99.20;;;;;;5093537;28;20671;-61
2022/07/23 09:57:10;;;;;;;0.85;0.80;;;24.10;98.60;;;;;;5093607;28;20169;-61
2022/07/23 09:59:38;;;;;;;0.70;0.68;;;24.20;98.80;;;;;;5093575;28;20227;-62
2022/07/23 10:02:06;;;;;;;0.60;0.60;;;24.60;98.20;;;;;;5075244;28;20539;-61
2022/07/23 10:04:32;;;;;;;0.93;0.80;;;24.40;97.00;;;;;;5093401;28;20189;-62
2022/07/23 10:07:01;;;;;;;0.90;0.68;;;24.40;99.10;;;;;;5093413;28;20205;-61
2022/07/23 10:09:33;;;;;;;1.05;0.82;;;24.70;98.30;;;;;;5093094;28;20508;-61
2022/07/23 10:14:42;;;;;;;0.70;0.70;;;24.70;97.60;;;;;;5093397;28;20201;-61
2022/07/23 10:17:08;;;;;;;0.73;0.73;;;25.00;96.90;;;;;;5075675;28;20178;-62
2022/07/23 10:19:34;;;;;;;0.70;0.68;;;24.90;96.50;;;;;;5093394;28;20166;-61
2022/07/23 10:22:04;;;;;;;0.70;0.70;;;25.20;96.70;;;;;;5093299;28;20193;-62
2022/07/23 10:24:46;;;;;;;1.10;1.00;;;25.10;94.80;;;;;;5093137;28;20254;-62
2022/07/23 10:27:52;;;;;;;0.75;0.73;;;25.00;95.50;;;;;;5093035;28;20181;-61
2022/07/23 10:30:25;;;;;;;0.82;0.82;;;25.10;96.00;;;;;;5093252;28;20200;-62
2022/07/23 10:33:45;;;;;;;0.73;0.73;;;25.00;94.70;;;;;;5093209;28;20166;-61
2022/07/23 10:36:23;;;;;;;0.60;0.52;;;25.00;94.60;;;;;;4991526;28;20292;-61
2022/07/23 10:39:15;;;;;;;1.00;0.52;;;24.90;96.60;;;;;;5080768;28;20208;-62
2022/07/23 10:41:42;;;;;;;1.33;0.98;;;25.10;96.40;;;;;;5074920;28;20541;-62
2022/07/23 10:44:12;;;;;;;1.17;1.08;;;25.30;96.70;;;;;;5092940;28;20238;-61
2022/07/23 10:49:32;;;;;;;0.80;0.80;;;25.30;95.00;;;;;;5093203;28;20189;-61
2022/07/23 10:52:17;;;;;;;0.80;0.80;;;25.40;95.00;;;;;;5095849;28;20174;-62
2022/07/23 10:54:44;;;;;;;0.90;0.73;;;25.60;95.70;;;;;;5096795;28;20220;-61
2022/07/23 10:57:12;;;;;;;0.50;0.50;;;25.80;95.90;;;;;;5096749;28;20202;-62
2022/07/23 11:02:36;;;;;;;0.40;0.40;;;26.00;94.00;;;;;;5096560;28;20174;-62
2022/07/23 11:05:05;;;;;;;0.65;0.60;;;26.30;94.80;;;;;;5078916;28;20174;-62
2022/07/23 11:07:30;;;;;;;1.30;0.80;;;26.20;93.60;;;;;;5078430;28;20197;-61
2022/07/23 11:09:56;;;;;;;1.00;0.70;;;26.30;93.50;;;;;;5061473;28;20198;-62
2022/07/23 11:12:28;;;;;;;0.75;0.65;;;26.20;93.50;;;;;;5078392;28;20176;-62
2022/07/23 11:15:14;;;;;;;0.55;0.55;;;26.20;94.90;;;;;;5096267;28;20237;-61
2022/07/23 11:18:00;;;;;;;1.13;0.70;;;26.10;93.00;;;;;;5096316;28;20642;-61
2022/07/23 11:20:26;;;;;;;0.57;0.57;;;25.90;91.40;;;;;;5078294;28;20178;-62
2022/07/23 11:22:57;;;;;;;0.32;0.32;;;25.90;91.50;;;;;;5096224;28;20665;-61
2022/07/23 11:25:27;;;;;;;0.50;0.47;;;26.20;91.60;;;;;;5096082;28;20272;-62
2022/07/23 11:27:54;;;;;;;0.45;0.45;;;26.50;91.30;;;;;;5095904;28;20177;-62
2022/07/23 11:30:28;;;;;;;1.17;0.75;;;26.60;92.30;;;;;;5061671;28;20256;-61
2022/07/23 11:33:14;;;;;;;0.45;0.45;;;26.50;91.00;;;;;;5095938;28;20165;-62
2022/07/23 11:35:49;;;;;;;0.47;0.47;;;26.50;90.50;;;;;;5096148;28;20193;-61
2022/07/23 11:38:16;;;;;;;1.35;0.73;;;26.70;91.20;;;;;;5095744;28;20165;-63
2022/07/23 11:40:54;;;;;;;0.65;0.63;;;26.60;91.30;;;;;;5095474;28;20253;-64
2022/07/23 11:43:20;;;;;;;0.82;0.60;;;26.70;91.60;;;;;;5095532;28;20184;-64
2022/07/23 11:45:48;;;;;;;0.55;0.40;;;26.30;89.00;;;;;;5094613;28;20595;-64
2022/07/23 11:48:18;;;;;;;0.80;0.63;;;25.70;87.50;;;;;;5094170;28;20173;-64
2022/07/23 11:50:44;;;;;;;0.47;0.47;;;25.90;90.70;;;;;;5095401;28;20166;-64
2022/07/23 11:53:10;;;;;;;0.40;0.40;;;26.30;91.60;;;;;;5095725;28;20173;-65
2022/07/23 11:55:36;;;;;;;0.95;0.50;;;26.70;92.00;;;;;;5095500;28;20527;-64
2022/07/23 11:58:01;;;;;;;0.60;0.60;;;26.70;89.50;;;;;;5095536;28;20173;-64
2022/07/23 12:00:29;;;;;;;0.63;0.60;;;26.70;90.00;;;;;;5077349;28;20700;-63
2022/07/23 12:03:03;;;;;;;0.63;0.60;;;26.50;89.90;;;;;;5094284;28;20181;-64
2022/07/23 12:05:32;;;;;;;0.75;0.70;;;26.50;91.60;;;;;;5096030;28;20174;-64
2022/07/23 12:08:00;;;;;;;0.77;0.77;;;26.40;91.50;;;;;;5095494;28;20635;-64
2022/07/23 12:10:30;;;;;;;0.82;0.52;;;26.40;91.50;;;;;;5077274;28;20251;-64
2022/07/23 12:13:05;;;;;;;0.40;0.40;;;26.30;91.90;;;;;;5094523;28;20169;-64
2022/07/23 12:15:38;;;;;;;0.65;0.60;;;26.60;91.40;;;;;;5094185;28;20315;-63
2022/07/23 12:18:04;;;;;;;0.50;0.50;;;26.40;90.80;;;;;;5093795;28;20274;-64
2022/07/23 12:20:33;;;;;;;1.17;0.40;;;26.70;91.00;;;;;;5094008;28;20174;-64
2022/07/23 12:23:02;;;;;;;0.57;0.50;;;26.70;90.80;;;;;;5094624;28;20177;-64
2022/07/23 12:25:34;;;;;;;0.50;0.50;;;26.80;90.40;;;;;;5094470;28;20694;-65
2022/07/23 12:28:32;;;;;;;0.70;0.70;;;26.60;89.60;;;;;;5094670;28;20618;-64
2022/07/23 12:30:58;;;;;;;0.40;0.40;;;26.80;91.10;;;;;;5081812;28;20268;-65
2022/07/23 12:33:25;;;;;;;0.50;0.50;;;27.00;90.60;;;;;;5094668;28;20232;-64
2022/07/23 12:35:54;;;;;;;0.60;0.60;;;27.00;90.50;;;;;;5094673;28;20182;-62
2022/07/23 12:38:22;;;;;;;0.88;0.77;;;27.00;90.30;;;;;;5094451;28;20178;-64
2022/07/23 12:40:54;;;;;;;0.30;0.30;;;27.10;90.20;;;;;;5094415;28;20174;-64
2022/07/23 12:43:29;;;;;;;0.95;0.75;;;27.10;87.90;;;;;;5094292;28;20170;-64
2022/07/23 12:46:07;;;;;;;0.88;0.65;;;27.10;90.60;;;;;;5094552;28;20176;-64
2022/07/23 12:48:38;;;;;;;0.47;0.47;;;26.70;87.00;;;;;;5094577;28;20158;-64
2022/07/23 12:51:06;;;;;;;0.75;0.70;;;26.70;88.60;;;;;;5094474;28;20244;-64
2022/07/23 12:53:39;;;;;;;0.60;0.60;;;26.90;91.00;;;;;;5094469;28;20210;-64
2022/07/23 12:56:05;;;;;;;0.90;0.65;;;27.10;90.00;;;;;;5094504;28;20229;-64
2022/07/23 12:59:03;;;;;;;0.98;0.52;;;27.20;90.00;;;;;;5094628;28;20531;-64